createdAt,value
2018-11-07T00:00:08.878Z,37.30
2018-11-07T00:00:39.989Z,37.00
2018-11-07T00:01:11.107Z,39.78
2018-11-07T00:01:42.251Z,39.80
2018-11-07T00:02:13.385Z,39.13
2018-11-07T00:02:44.532Z,34.55
2018-11-07T00:03:15.709Z,38.05
2018-11-07T00:03:46.843Z,38.30
2018-11-07T00:04:17.953Z,38.88
2018-11-07T00:04:49.093Z,37.75
2018-11-07T00:05:20.210Z,40.88
2018-11-07T00:05:51.340Z,37.80
2018-11-07T00:06:22.518Z,45.25
2018-11-07T00:06:53.653Z,41.55
2018-11-07T00:07:24.836Z,40.55
2018-11-07T00:07:56.040Z,38.63
2018-11-07T00:08:27.222Z,41.98
2018-11-07T00:08:58.371Z,38.25
2018-11-07T00:09:29.477Z,38.90
2018-11-07T00:10:00.613Z,41.50
2018-11-07T00:10:31.750Z,39.83
2018-11-07T00:11:02.878Z,36.15
2018-11-07T00:11:34.003Z,37.05
2018-11-07T00:12:05.126Z,36.88
2018-11-07T00:12:36.334Z,37.60
2018-11-07T00:13:07.470Z,34.10
2018-11-07T00:13:38.606Z,35.52
2018-11-07T00:14:09.758Z,32.00
2018-11-07T00:14:40.909Z,37.58
2018-11-07T00:15:12.025Z,30.57
2018-11-07T00:15:43.131Z,32.90
2018-11-07T00:16:14.312Z,34.27
2018-11-07T00:16:45.440Z,34.53
2018-11-07T00:17:16.585Z,31.77
2018-11-07T00:17:47.738Z,29.52
2018-11-07T00:18:18.879Z,31.20
2018-11-07T00:18:49.999Z,34.20
2018-11-07T00:19:21.203Z,31.65
2018-11-07T00:19:52.320Z,32.38
2018-11-07T00:20:23.434Z,30.80
2018-11-07T00:20:54.548Z,26.62
2018-11-07T00:21:25.650Z,30.35
2018-11-07T00:21:56.774Z,31.57
2018-11-07T00:22:27.882Z,31.20
2018-11-07T00:22:59.066Z,31.00
2018-11-07T00:23:30.163Z,31.68
2018-11-07T00:24:01.258Z,29.30
2018-11-07T00:24:32.358Z,30.15
2018-11-07T00:25:03.485Z,29.55
2018-11-07T00:25:34.610Z,31.50
2018-11-07T00:26:05.747Z,33.05
2018-11-07T00:26:36.898Z,30.25
2018-11-07T00:27:08.043Z,28.10
2018-11-07T00:27:39.233Z,27.75
2018-11-07T00:28:10.359Z,28.92
2018-11-07T00:28:41.476Z,30.15
2018-11-07T00:29:12.591Z,28.55
2018-11-07T00:29:43.702Z,30.45
2018-11-07T00:30:14.997Z,28.60
2018-11-07T00:30:46.018Z,26.52
2018-11-07T00:31:17.114Z,29.55
2018-11-07T00:31:48.259Z,29.15
2018-11-07T00:32:19.450Z,28.50
2018-11-07T00:32:50.638Z,30.25
2018-11-07T00:33:21.797Z,27.77
2018-11-07T00:33:52.930Z,27.90
2018-11-07T00:34:24.062Z,29.07
2018-11-07T00:34:55.259Z,30.92
2018-11-07T00:35:27.556Z,29.15
2018-11-07T00:35:58.689Z,27.58
2018-11-07T00:36:29.811Z,25.52
2018-11-07T00:37:00.952Z,31.30
2018-11-07T00:37:32.086Z,29.45
2018-11-07T00:38:03.265Z,31.42
2018-11-07T00:38:34.389Z,27.85
2018-11-07T00:39:05.524Z,26.60
2018-11-07T00:39:37.559Z,26.00
2018-11-07T00:40:08.672Z,29.20
2018-11-07T00:40:39.804Z,26.12
2018-11-07T00:41:10.986Z,30.82
2018-11-07T00:41:42.091Z,27.15
2018-11-07T00:42:13.267Z,25.65
2018-11-07T00:42:44.343Z,26.50
2018-11-07T00:43:15.520Z,25.52
2018-11-07T00:43:46.659Z,25.55
2018-11-07T00:44:17.796Z,25.85
2018-11-07T00:44:48.929Z,31.23
2018-11-07T00:45:20.043Z,22.93
2018-11-07T00:45:51.174Z,27.50
2018-11-07T00:46:22.284Z,24.65
2018-11-07T00:46:53.401Z,25.80
2018-11-07T00:47:24.537Z,27.25
2018-11-07T00:47:55.669Z,26.87
2018-11-07T00:48:26.843Z,24.80
2018-11-07T00:48:57.978Z,23.35
2018-11-07T00:49:29.099Z,25.95
2018-11-07T00:50:00.257Z,25.10
2018-11-07T00:50:31.425Z,26.97
2018-11-07T00:51:02.547Z,25.88
2018-11-07T00:51:33.708Z,26.15
2018-11-07T00:52:04.830Z,22.70
2018-11-07T00:52:35.954Z,22.20
2018-11-07T00:53:07.058Z,25.85
2018-11-07T00:53:38.163Z,23.42
2018-11-07T00:54:09.288Z,19.37
2018-11-07T00:54:40.423Z,22.32
2018-11-07T00:55:11.551Z,22.60
2018-11-07T00:55:42.724Z,23.38
2018-11-07T00:56:13.843Z,22.13
2018-11-07T00:56:44.991Z,25.65
2018-11-07T00:57:16.117Z,21.17
2018-11-07T00:57:47.254Z,22.13
2018-11-07T00:58:18.380Z,22.58
2018-11-07T00:58:49.534Z,24.98
2018-11-07T00:59:20.691Z,22.35
2018-11-07T00:59:51.827Z,25.88
2018-11-07T01:00:23.764Z,22.02
2018-11-07T01:00:54.939Z,21.87
2018-11-07T01:01:26.042Z,22.40
2018-11-07T01:01:57.174Z,25.50
2018-11-07T01:02:28.278Z,23.92
2018-11-07T01:02:59.403Z,24.27
2018-11-07T01:03:30.538Z,21.95
2018-11-07T01:04:01.655Z,23.50
2018-11-07T01:04:32.842Z,21.25
2018-11-07T01:05:03.993Z,20.48
2018-11-07T01:05:35.139Z,25.23
2018-11-07T01:06:06.276Z,25.17
2018-11-07T01:06:37.427Z,23.47
2018-11-07T01:07:08.558Z,22.70
2018-11-07T01:07:39.688Z,24.90
2018-11-07T01:08:10.782Z,24.57
2018-11-07T01:08:41.916Z,24.98
2018-11-07T01:09:13.043Z,23.10
2018-11-07T01:09:44.245Z,25.70
2018-11-07T01:10:15.339Z,22.50
2018-11-07T01:10:46.465Z,23.07
2018-11-07T01:11:17.606Z,24.85
2018-11-07T01:11:48.759Z,23.95
2018-11-07T01:12:19.898Z,23.90
2018-11-07T01:12:51.015Z,24.40
2018-11-07T01:13:22.143Z,24.37
2018-11-07T01:13:53.279Z,24.63
2018-11-07T01:14:24.384Z,21.35
2018-11-07T01:14:56.300Z,24.12
2018-11-07T01:15:27.414Z,21.82
2018-11-07T01:15:59.469Z,19.92
2018-11-07T01:16:30.673Z,19.95
2018-11-07T01:17:01.828Z,22.05
2018-11-07T01:17:32.958Z,23.62
2018-11-07T01:18:04.072Z,21.52
2018-11-07T01:18:35.207Z,21.60
2018-11-07T01:19:06.378Z,21.05
2018-11-07T01:19:37.478Z,20.90
2018-11-07T01:20:08.586Z,21.23
2018-11-07T01:20:39.717Z,21.37
2018-11-07T01:21:10.833Z,21.33
2018-11-07T01:21:41.962Z,24.40
2018-11-07T01:22:13.127Z,18.65
2018-11-07T01:22:44.297Z,17.05
2018-11-07T01:23:15.409Z,17.90
2018-11-07T01:23:46.595Z,21.52
2018-11-07T01:24:17.746Z,23.00
2018-11-07T01:24:48.859Z,21.93
2018-11-07T01:25:19.973Z,18.48
2018-11-07T01:25:51.169Z,20.70
2018-11-07T01:26:23.270Z,23.12
2018-11-07T01:26:54.375Z,24.35
2018-11-07T01:27:25.483Z,22.42
2018-11-07T01:27:56.587Z,19.87
2018-11-07T01:28:27.707Z,21.05
2018-11-07T01:28:58.834Z,21.93
2018-11-07T01:29:30.011Z,18.27
2018-11-07T01:30:01.138Z,19.70
2018-11-07T01:30:32.264Z,19.65
2018-11-07T01:31:03.431Z,20.85
2018-11-07T01:31:34.540Z,19.37
2018-11-07T01:32:05.719Z,23.27
2018-11-07T01:32:36.858Z,22.42
2018-11-07T01:33:07.959Z,21.30
2018-11-07T01:33:39.101Z,19.20
2018-11-07T01:34:10.236Z,18.87
2018-11-07T01:34:41.414Z,20.37
2018-11-07T01:35:12.555Z,20.27
2018-11-07T01:35:43.746Z,22.22
2018-11-07T01:36:14.858Z,19.98
2018-11-07T01:36:45.988Z,19.00
2018-11-07T01:37:17.109Z,20.68
2018-11-07T01:37:48.240Z,20.30
2018-11-07T01:38:19.383Z,18.80
2018-11-07T01:38:50.489Z,20.90
2018-11-07T01:39:21.660Z,19.25
2018-11-07T01:39:52.820Z,21.20
2018-11-07T01:40:23.922Z,19.27
2018-11-07T01:40:55.059Z,19.67
2018-11-07T01:41:26.846Z,23.15
2018-11-07T01:41:58.095Z,22.32
2018-11-07T01:42:29.230Z,24.18
2018-11-07T01:43:00.366Z,18.05
2018-11-07T01:43:31.495Z,18.25
2018-11-07T01:44:02.627Z,19.82
2018-11-07T01:44:33.794Z,19.98
2018-11-07T01:45:04.938Z,21.37
2018-11-07T01:45:36.067Z,23.92
2018-11-07T01:46:07.220Z,18.40
2018-11-07T01:46:38.335Z,22.32
2018-11-07T01:47:09.487Z,21.40
2018-11-07T01:47:40.636Z,20.52
2018-11-07T01:48:11.762Z,21.30
2018-11-07T01:48:42.870Z,22.70
2018-11-07T01:49:14.025Z,19.87
2018-11-07T01:49:45.180Z,20.80
2018-11-07T01:50:16.395Z,21.97
2018-11-07T01:50:47.505Z,20.17
2018-11-07T01:51:18.621Z,22.50
2018-11-07T01:51:49.739Z,20.85
2018-11-07T01:52:20.870Z,18.65
2018-11-07T01:52:51.988Z,21.90
2018-11-07T01:53:23.106Z,22.35
2018-11-07T01:53:55.015Z,21.12
2018-11-07T01:54:26.242Z,21.52
2018-11-07T01:54:57.352Z,20.72
2018-11-07T01:55:28.493Z,23.00
2018-11-07T01:55:59.608Z,21.42
2018-11-07T01:56:30.719Z,22.35
2018-11-07T01:57:01.874Z,21.87
2018-11-07T01:57:32.998Z,22.90
2018-11-07T01:58:04.121Z,21.80
2018-11-07T01:58:35.299Z,21.35
2018-11-07T01:59:06.479Z,20.27
2018-11-07T01:59:37.639Z,20.43
2018-11-07T02:00:08.801Z,23.00
2018-11-07T02:00:39.944Z,20.85
2018-11-07T02:01:11.061Z,20.50
2018-11-07T02:01:42.188Z,21.85
2018-11-07T02:02:13.299Z,21.48
2018-11-07T02:02:44.400Z,20.40
2018-11-07T02:03:16.681Z,20.23
2018-11-07T02:03:47.791Z,24.10
2018-11-07T02:04:18.934Z,22.50
2018-11-07T02:04:50.049Z,20.80
2018-11-07T02:05:21.178Z,20.85
2018-11-07T02:05:52.320Z,20.97
2018-11-07T02:06:23.502Z,20.40
2018-11-07T02:06:54.616Z,23.95
2018-11-07T02:07:25.780Z,21.75
2018-11-07T02:07:56.904Z,22.98
2018-11-07T02:08:28.043Z,21.02
2018-11-07T02:08:59.170Z,21.02
2018-11-07T02:09:30.364Z,20.37
2018-11-07T02:10:01.504Z,21.12
2018-11-07T02:10:33.516Z,21.68
2018-11-07T02:11:04.652Z,21.60
2018-11-07T02:11:35.799Z,21.05
2018-11-07T02:12:06.925Z,22.17
2018-11-07T02:12:38.047Z,21.00
2018-11-07T02:13:09.179Z,21.62
2018-11-07T02:13:40.333Z,21.45
2018-11-07T02:14:11.500Z,22.52
2018-11-07T02:14:42.603Z,21.37
2018-11-07T02:15:13.776Z,19.65
2018-11-07T02:15:44.901Z,24.87
2018-11-07T02:16:16.008Z,23.98
2018-11-07T02:16:47.159Z,23.92
2018-11-07T02:17:18.255Z,21.00
2018-11-07T02:17:49.354Z,24.00
2018-11-07T02:18:20.459Z,20.72
2018-11-07T02:18:51.599Z,21.35
2018-11-07T02:19:22.729Z,20.82
2018-11-07T02:19:53.871Z,23.18
2018-11-07T02:20:25.003Z,24.90
2018-11-07T02:20:56.154Z,20.82
2018-11-07T02:21:27.319Z,20.10
2018-11-07T02:21:58.475Z,20.88
2018-11-07T02:22:29.601Z,21.90
2018-11-07T02:23:00.733Z,21.48
2018-11-07T02:23:31.877Z,22.20
2018-11-07T02:24:03.010Z,21.82
2018-11-07T02:24:34.153Z,25.60
2018-11-07T02:25:05.266Z,21.90
2018-11-07T02:25:36.370Z,21.87
2018-11-07T02:26:07.627Z,22.85
2018-11-07T02:26:38.711Z,21.87
2018-11-07T02:27:09.815Z,23.32
2018-11-07T02:27:40.931Z,22.48
2018-11-07T02:28:12.050Z,22.07
2018-11-07T02:28:43.159Z,21.75
2018-11-07T02:29:14.253Z,21.85
2018-11-07T02:29:45.398Z,21.25
2018-11-07T02:30:16.579Z,22.95
2018-11-07T02:30:47.747Z,24.85
2018-11-07T02:31:18.942Z,22.02
2018-11-07T02:31:51.109Z,22.45
2018-11-07T02:32:22.225Z,22.52
2018-11-07T02:32:53.342Z,23.20
2018-11-07T02:33:24.470Z,23.20
2018-11-07T02:33:55.616Z,24.52
2018-11-07T02:34:26.762Z,21.02
2018-11-07T02:34:57.926Z,21.05
2018-11-07T02:35:29.098Z,21.75
2018-11-07T02:36:00.280Z,21.85
2018-11-07T02:36:31.391Z,22.45
2018-11-07T02:37:02.559Z,23.42
2018-11-07T02:37:33.667Z,26.40
2018-11-07T02:38:04.827Z,23.42
2018-11-07T02:38:36.017Z,22.37
2018-11-07T02:39:07.127Z,23.67
2018-11-07T02:39:38.273Z,23.10
2018-11-07T02:40:09.437Z,20.82
2018-11-07T02:40:40.542Z,21.95
2018-11-07T02:41:11.696Z,23.55
2018-11-07T02:41:42.869Z,22.73
2018-11-07T02:42:13.986Z,20.25
2018-11-07T02:42:45.134Z,21.35
2018-11-07T02:43:16.783Z,22.70
2018-11-07T02:43:47.903Z,23.87
2018-11-07T02:44:19.026Z,23.07
2018-11-07T02:44:50.139Z,23.47
2018-11-07T02:45:21.303Z,21.73
2018-11-07T02:45:52.433Z,21.73
2018-11-07T02:46:23.544Z,23.77
2018-11-07T02:46:54.718Z,22.48
2018-11-07T02:47:25.885Z,21.02
2018-11-07T02:47:57.114Z,23.35
2018-11-07T02:48:28.263Z,23.73
2018-11-07T02:48:59.384Z,23.10
2018-11-07T02:49:30.520Z,23.65
2018-11-07T02:50:01.627Z,22.15
2018-11-07T02:50:32.832Z,21.90
2018-11-07T02:51:03.995Z,22.10
2018-11-07T02:51:36.289Z,21.50
2018-11-07T02:52:07.435Z,24.23
2018-11-07T02:52:38.609Z,23.10
2018-11-07T02:53:09.803Z,22.58
2018-11-07T02:53:41.050Z,25.05
2018-11-07T02:54:12.105Z,26.37
2018-11-07T02:54:43.250Z,23.32
2018-11-07T02:55:14.443Z,23.70
2018-11-07T02:55:45.542Z,21.80
2018-11-07T02:56:16.692Z,26.10
2018-11-07T02:56:47.834Z,23.40
2018-11-07T02:57:18.945Z,22.80
2018-11-07T02:57:50.079Z,21.37
2018-11-07T02:58:21.215Z,25.45
2018-11-07T02:58:52.380Z,23.65
2018-11-07T02:59:23.534Z,21.93
2018-11-07T02:59:54.777Z,21.12
2018-11-07T03:00:25.986Z,22.73
2018-11-07T03:00:57.176Z,22.90
2018-11-07T03:01:28.249Z,23.20
2018-11-07T03:01:59.368Z,24.57
2018-11-07T03:02:30.742Z,21.57
2018-11-07T03:03:01.895Z,28.30
2018-11-07T03:03:33.077Z,22.65
2018-11-07T03:04:04.197Z,22.32
2018-11-07T03:04:35.330Z,25.48
2018-11-07T03:05:06.435Z,23.22
2018-11-07T03:05:37.572Z,22.40
2018-11-07T03:06:08.689Z,22.45
2018-11-07T03:06:39.811Z,22.25
2018-11-07T03:07:10.922Z,21.80
2018-11-07T03:07:42.023Z,20.62
2018-11-07T03:08:13.193Z,19.60
2018-11-07T03:08:44.298Z,22.73
2018-11-07T03:09:15.461Z,22.70
2018-11-07T03:09:46.643Z,22.82
2018-11-07T03:10:17.837Z,21.10
2018-11-07T03:10:49.073Z,20.57
2018-11-07T03:11:20.108Z,20.25
2018-11-07T03:11:51.221Z,25.68
2018-11-07T03:12:22.337Z,21.93
2018-11-07T03:12:53.444Z,25.72
2018-11-07T03:13:24.620Z,23.35
2018-11-07T03:13:55.849Z,22.07
2018-11-07T03:14:26.985Z,20.88
2018-11-07T03:14:58.124Z,25.60
2018-11-07T03:15:29.240Z,23.47
2018-11-07T03:16:00.351Z,24.25
2018-11-07T03:16:31.482Z,22.07
2018-11-07T03:17:02.634Z,22.90
2018-11-07T03:17:33.778Z,23.18
2018-11-07T03:18:04.916Z,24.95
2018-11-07T03:18:36.730Z,22.93
2018-11-07T03:19:07.874Z,21.97
2018-11-07T03:19:39.001Z,22.02
2018-11-07T03:20:10.104Z,21.93
2018-11-07T03:20:41.247Z,22.62
2018-11-07T03:21:12.355Z,24.05
2018-11-07T03:22:20.919Z,23.05
2018-11-07T03:22:52.057Z,20.62
2018-11-07T03:23:23.230Z,21.23
2018-11-07T03:23:54.371Z,22.87
2018-11-07T03:24:25.548Z,22.02
2018-11-07T03:24:56.681Z,23.57
2018-11-07T03:25:27.793Z,22.82
2018-11-07T03:25:58.906Z,22.65
2018-11-07T03:26:30.070Z,25.27
2018-11-07T03:27:01.208Z,23.15
2018-11-07T03:27:32.321Z,23.67
2018-11-07T03:28:03.426Z,22.07
2018-11-07T03:28:34.592Z,23.98
2018-11-07T03:29:05.698Z,22.85
2018-11-07T03:29:36.834Z,21.95
2018-11-07T03:30:07.962Z,22.37
2018-11-07T03:30:39.129Z,22.82
2018-11-07T03:31:10.263Z,20.75
2018-11-07T03:31:41.393Z,23.92
2018-11-07T03:32:12.532Z,22.48
2018-11-07T03:32:43.654Z,22.02
2018-11-07T03:33:14.799Z,24.20
2018-11-07T03:33:45.927Z,24.70
2018-11-07T03:34:17.067Z,24.35
2018-11-07T03:34:48.224Z,24.82
2018-11-07T03:35:19.343Z,22.93
2018-11-07T03:35:50.457Z,22.67
2018-11-07T03:36:21.611Z,21.30
2018-11-07T03:36:52.726Z,25.27
2018-11-07T03:37:23.834Z,22.62
2018-11-07T03:37:54.988Z,21.37
2018-11-07T03:38:26.154Z,21.62
2018-11-07T03:38:57.263Z,20.85
2018-11-07T03:39:28.474Z,22.05
2018-11-07T03:39:59.583Z,22.25
2018-11-07T03:40:30.699Z,26.70
2018-11-07T03:41:01.859Z,21.10
2018-11-07T03:41:33.040Z,21.70
2018-11-07T03:42:04.157Z,25.45
2018-11-07T03:42:35.314Z,25.10
2018-11-07T03:43:06.470Z,23.55
2018-11-07T03:43:37.613Z,23.70
2018-11-07T03:44:08.718Z,23.90
2018-11-07T03:44:39.884Z,21.35
2018-11-07T03:45:10.990Z,22.17
2018-11-07T03:45:42.113Z,23.80
2018-11-07T03:46:13.248Z,22.10
2018-11-07T03:46:44.396Z,21.57
2018-11-07T03:47:15.516Z,24.75
2018-11-07T03:47:46.677Z,23.62
2018-11-07T03:48:17.789Z,23.00
2018-11-07T03:48:48.945Z,22.80
2018-11-07T03:49:20.062Z,24.27
2018-11-07T03:49:51.195Z,20.88
2018-11-07T03:50:22.354Z,23.07
2018-11-07T03:50:53.541Z,22.95
2018-11-07T03:51:24.671Z,24.55
2018-11-07T03:51:55.786Z,24.67
2018-11-07T03:52:26.957Z,23.57
2018-11-07T03:52:58.148Z,22.13
2018-11-07T03:53:29.228Z,22.82
2018-11-07T03:54:00.385Z,23.15
2018-11-07T03:54:31.495Z,20.97
2018-11-07T03:55:02.630Z,22.70
2018-11-07T03:55:33.789Z,23.83
2018-11-07T03:56:04.964Z,24.60
2018-11-07T03:56:36.097Z,25.90
2018-11-07T03:57:07.284Z,26.73
2018-11-07T03:57:38.412Z,23.52
2018-11-07T03:58:09.530Z,21.70
2018-11-07T03:58:40.657Z,23.57
2018-11-07T03:59:11.807Z,23.10
2018-11-07T03:59:42.927Z,23.22
2018-11-07T04:00:14.026Z,23.60
2018-11-07T04:00:46.074Z,26.25
2018-11-07T04:01:17.206Z,25.77
2018-11-07T04:01:48.364Z,24.77
2018-11-07T04:02:19.485Z,26.75
2018-11-07T04:02:50.620Z,26.27
2018-11-07T04:03:21.755Z,24.95
2018-11-07T04:03:52.863Z,25.80
2018-11-07T04:04:24.012Z,23.95
2018-11-07T04:04:55.718Z,24.45
2018-11-07T04:05:26.868Z,26.17
2018-11-07T04:05:57.985Z,24.18
2018-11-07T04:06:29.091Z,26.20
2018-11-07T04:07:00.259Z,26.37
2018-11-07T04:07:31.413Z,25.82
2018-11-07T04:08:02.523Z,26.10
2018-11-07T04:08:33.659Z,28.67
2018-11-07T04:09:04.875Z,27.32
2018-11-07T04:09:35.998Z,26.87
2018-11-07T04:10:07.116Z,26.10
2018-11-07T04:10:38.243Z,26.35
2018-11-07T04:11:09.359Z,26.25
2018-11-07T04:11:40.476Z,25.97
2018-11-07T04:12:11.680Z,26.42
2018-11-07T04:12:42.776Z,26.25
2018-11-07T04:13:13.913Z,29.52
2018-11-07T04:13:45.034Z,25.80
2018-11-07T04:14:16.766Z,27.07
2018-11-07T04:14:47.933Z,24.72
2018-11-07T04:15:19.071Z,27.73
2018-11-07T04:15:50.212Z,28.75
2018-11-07T04:16:21.319Z,26.52
2018-11-07T04:16:52.427Z,24.77
2018-11-07T04:17:23.555Z,26.30
2018-11-07T04:17:54.816Z,25.88
2018-11-07T04:18:25.922Z,24.37
2018-11-07T04:18:57.046Z,27.70
2018-11-07T04:19:28.160Z,28.10
2018-11-07T04:19:59.285Z,28.60
2018-11-07T04:20:30.417Z,27.40
2018-11-07T04:21:01.533Z,27.07
2018-11-07T04:21:32.642Z,28.05
2018-11-07T04:22:03.800Z,28.38
2018-11-07T04:22:34.925Z,26.00
2018-11-07T04:23:06.137Z,27.05
2018-11-07T04:23:37.265Z,29.65
2018-11-07T04:24:08.407Z,27.00
2018-11-07T04:24:39.519Z,31.65
2018-11-07T04:25:10.725Z,27.20
2018-11-07T04:25:42.518Z,26.55
2018-11-07T04:26:13.644Z,27.85
2018-11-07T04:26:44.749Z,28.83
2018-11-07T04:27:15.889Z,27.05
2018-11-07T04:27:47.077Z,30.15
2018-11-07T04:28:18.284Z,24.77
2018-11-07T04:28:49.419Z,26.85
2018-11-07T04:29:20.551Z,27.77
2018-11-07T04:29:51.664Z,25.65
2018-11-07T04:30:22.880Z,24.20
2018-11-07T04:30:54.044Z,27.40
2018-11-07T04:31:25.145Z,21.87
2018-11-07T04:31:56.295Z,26.75
2018-11-07T04:32:27.426Z,30.15
2018-11-07T04:32:58.563Z,25.85
2018-11-07T04:33:29.666Z,28.55
2018-11-07T04:34:00.799Z,25.92
2018-11-07T04:34:31.959Z,28.05
2018-11-07T04:35:03.166Z,25.75
2018-11-07T04:35:34.298Z,28.62
2018-11-07T04:36:05.412Z,29.35
2018-11-07T04:36:36.517Z,27.25
2018-11-07T04:37:08.143Z,26.55
2018-11-07T04:37:39.293Z,22.30
2018-11-07T04:38:10.426Z,29.50
2018-11-07T04:38:41.542Z,26.30
2018-11-07T04:39:12.766Z,29.05
2018-11-07T04:39:43.892Z,29.95
2018-11-07T04:40:15.027Z,31.10
2018-11-07T04:40:46.160Z,29.30
2018-11-07T04:41:17.253Z,27.10
2018-11-07T04:41:48.389Z,27.48
2018-11-07T04:42:19.495Z,26.10
2018-11-07T04:42:50.635Z,28.25
2018-11-07T04:43:21.754Z,26.35
2018-11-07T04:43:52.872Z,23.65
2018-11-07T04:44:24.006Z,28.50
2018-11-07T04:44:55.128Z,29.10
2018-11-07T04:45:26.231Z,27.85
2018-11-07T04:45:57.400Z,27.67
2018-11-07T04:46:28.506Z,30.35
2018-11-07T04:46:59.648Z,24.37
2018-11-07T04:47:30.939Z,25.90
2018-11-07T04:48:02.118Z,25.50
2018-11-07T04:48:33.250Z,27.82
2018-11-07T04:49:04.408Z,24.87
2018-11-07T04:49:35.540Z,27.37
2018-11-07T04:50:06.659Z,21.68
2018-11-07T04:50:37.788Z,26.70
2018-11-07T04:51:08.956Z,25.00
2018-11-07T04:51:40.081Z,26.55
2018-11-07T04:52:11.250Z,28.90
2018-11-07T04:52:42.360Z,26.30
2018-11-07T04:53:14.162Z,27.37
2018-11-07T04:53:45.311Z,26.12
2018-11-07T04:54:16.448Z,26.55
2018-11-07T04:54:47.582Z,24.18
2018-11-07T04:55:18.723Z,27.25
2018-11-07T04:55:49.899Z,29.57
2018-11-07T04:56:21.030Z,26.15
2018-11-07T04:56:52.154Z,25.75
2018-11-07T04:57:23.319Z,23.70
2018-11-07T04:57:54.492Z,28.50
2018-11-07T04:58:25.620Z,25.75
2018-11-07T04:58:56.752Z,27.93
2018-11-07T04:59:27.888Z,24.65
2018-11-07T04:59:59.051Z,23.87
2018-11-07T05:00:30.162Z,26.80
2018-11-07T05:01:01.326Z,25.27
2018-11-07T05:01:32.441Z,24.10
2018-11-07T05:02:03.631Z,23.65
2018-11-07T05:02:34.859Z,22.93
2018-11-07T05:03:05.991Z,22.85
2018-11-07T05:03:37.112Z,23.18
2018-11-07T05:04:08.251Z,23.85
2018-11-07T05:04:39.377Z,28.90
2018-11-07T05:05:10.530Z,26.12
2018-11-07T05:05:41.650Z,23.22
2018-11-07T05:06:12.875Z,22.65
2018-11-07T05:06:44.038Z,28.62
2018-11-07T05:07:15.230Z,26.33
2018-11-07T05:07:47.005Z,24.60
2018-11-07T05:08:18.186Z,25.72
2018-11-07T05:08:49.510Z,23.15
2018-11-07T05:09:20.591Z,22.22
2018-11-07T05:09:51.744Z,27.80
2018-11-07T05:10:22.923Z,24.75
2018-11-07T05:10:54.192Z,25.32
2018-11-07T05:11:25.353Z,20.75
2018-11-07T05:11:56.458Z,21.07
2018-11-07T05:12:27.588Z,24.30
2018-11-07T05:12:58.713Z,23.62
2018-11-07T05:13:30.435Z,19.17
2018-11-07T05:14:01.567Z,18.62
2018-11-07T05:14:33.620Z,21.87
2018-11-07T05:15:05.410Z,20.45
2018-11-07T05:15:37.154Z,20.15
2018-11-07T05:16:08.292Z,21.55
2018-11-07T05:16:39.449Z,23.55
2018-11-07T05:17:10.572Z,20.90
2018-11-07T05:17:41.741Z,20.50
2018-11-07T05:18:12.861Z,21.75
2018-11-07T05:18:44.025Z,21.07
2018-11-07T05:19:15.169Z,24.87
2018-11-07T05:19:47.234Z,19.23
2018-11-07T05:20:18.371Z,20.82
2018-11-07T05:20:49.488Z,21.02
2018-11-07T05:21:20.634Z,22.35
2018-11-07T05:21:51.807Z,21.48
2018-11-07T05:22:23.021Z,21.75
2018-11-07T05:22:54.208Z,22.48
2018-11-07T05:23:25.359Z,20.85
2018-11-07T05:23:56.548Z,20.65
2018-11-07T05:24:27.697Z,20.35
2018-11-07T05:24:58.842Z,24.23
2018-11-07T05:25:29.997Z,23.10
2018-11-07T05:26:01.266Z,26.10
2018-11-07T05:26:32.430Z,26.12
2018-11-07T05:27:03.617Z,25.23
2018-11-07T05:27:34.782Z,22.98
2018-11-07T05:28:06.096Z,24.00
2018-11-07T05:28:37.229Z,22.55
2018-11-07T05:29:08.379Z,26.93
2018-11-07T05:29:39.554Z,27.13
2018-11-07T05:30:10.740Z,28.30
2018-11-07T05:30:41.887Z,25.75
2018-11-07T05:31:14.870Z,24.10
2018-11-07T05:31:46.694Z,25.12
2018-11-07T05:32:17.782Z,30.37
2018-11-07T05:32:48.965Z,36.42
2018-11-07T05:33:20.082Z,31.35
2018-11-07T05:33:51.217Z,35.25
2018-11-07T05:34:22.655Z,30.68
2018-11-07T05:34:53.805Z,37.60
2018-11-07T05:35:24.936Z,27.98
2018-11-07T05:35:56.103Z,23.42
2018-11-07T05:36:27.238Z,26.65
2018-11-07T05:36:59.398Z,32.48
2018-11-07T05:37:30.581Z,26.62
2018-11-07T05:38:01.812Z,24.43
2018-11-07T05:38:32.965Z,28.35
2018-11-07T05:39:04.147Z,30.25
2018-11-07T05:39:35.308Z,24.72
2018-11-07T05:40:06.541Z,27.13
2018-11-07T05:40:37.742Z,27.40
2018-11-07T05:41:08.981Z,26.52
2018-11-07T05:41:40.104Z,29.10
2018-11-07T05:42:11.223Z,33.92
2018-11-07T05:42:42.842Z,40.12
2018-11-07T05:43:14.035Z,52.30
2018-11-07T05:43:45.179Z,37.08
2018-11-07T05:44:20.144Z,29.63
2018-11-07T05:44:51.335Z,27.58
2018-11-07T05:45:22.610Z,32.55
2018-11-07T05:45:54.915Z,30.95
2018-11-07T05:46:26.039Z,37.05
2018-11-07T05:46:57.376Z,32.60
2018-11-07T05:47:28.550Z,41.92
2018-11-07T05:48:00.581Z,38.50
2018-11-07T05:48:31.792Z,31.62
2018-11-07T05:49:02.959Z,30.20
2018-11-07T05:49:34.079Z,35.98
2018-11-07T05:50:05.226Z,36.08
2018-11-07T05:50:36.383Z,28.02
2018-11-07T05:51:07.543Z,31.42
2018-11-07T05:51:38.757Z,33.23
2018-11-07T05:52:11.143Z,40.17
2018-11-07T05:52:42.263Z,56.02
2018-11-07T05:53:13.438Z,30.50
2018-11-07T05:53:44.616Z,30.08
2018-11-07T05:54:15.823Z,33.13
2018-11-07T05:54:47.011Z,31.30
2018-11-07T05:55:18.176Z,27.67
2018-11-07T05:55:49.314Z,26.55
2018-11-07T05:56:20.546Z,28.55
2018-11-07T05:56:51.842Z,28.02
2018-11-07T05:57:22.994Z,26.90
2018-11-07T05:57:54.158Z,30.60
2018-11-07T05:58:25.284Z,28.50
2018-11-07T05:58:57.086Z,34.08
2018-11-07T05:59:28.263Z,30.92
2018-11-07T05:59:59.397Z,25.37
2018-11-07T06:00:31.539Z,31.48
2018-11-07T06:01:02.760Z,38.08
2018-11-07T06:01:33.867Z,33.75
2018-11-07T06:02:05.216Z,47.85
2018-11-07T06:02:37.534Z,43.50
2018-11-07T06:03:09.504Z,35.10
2018-11-07T06:03:40.859Z,46.73
2018-11-07T06:04:12.573Z,33.08
2018-11-07T06:04:43.705Z,41.28
2018-11-07T06:05:14.814Z,39.53
2018-11-07T06:05:45.939Z,31.45
2018-11-07T06:06:17.067Z,34.10
2018-11-07T06:06:48.174Z,34.03
2018-11-07T06:07:19.291Z,46.92
2018-11-07T06:07:50.459Z,38.15
2018-11-07T06:08:21.566Z,43.65
2018-11-07T06:08:52.746Z,34.53
2018-11-07T06:09:23.863Z,31.37
2018-11-07T06:09:54.980Z,40.50
2018-11-07T06:10:26.800Z,37.60
2018-11-07T06:10:57.984Z,32.75
2018-11-07T06:11:29.185Z,32.40
2018-11-07T06:12:00.285Z,32.80
2018-11-07T06:12:31.418Z,31.60
2018-11-07T06:13:02.554Z,40.10
2018-11-07T06:13:33.710Z,36.20
2018-11-07T06:14:04.862Z,33.53
2018-11-07T06:14:35.971Z,33.28
2018-11-07T06:15:07.646Z,40.63
2018-11-07T06:15:38.763Z,35.00
2018-11-07T06:16:09.950Z,43.05
2018-11-07T06:16:41.039Z,40.80
2018-11-07T06:17:12.192Z,36.17
2018-11-07T06:17:43.955Z,35.95
2018-11-07T06:18:15.095Z,40.12
2018-11-07T06:18:46.204Z,44.98
2018-11-07T06:19:17.329Z,37.55
2018-11-07T06:19:48.439Z,35.28
2018-11-07T06:20:19.553Z,36.77
2018-11-07T06:20:50.668Z,35.40
2018-11-07T06:21:21.800Z,36.15
2018-11-07T06:21:52.908Z,35.28
2018-11-07T06:22:24.064Z,36.53
2018-11-07T06:22:55.247Z,31.65
2018-11-07T06:23:26.346Z,33.55
2018-11-07T06:23:57.460Z,36.83
2018-11-07T06:24:28.650Z,35.70
2018-11-07T06:24:59.832Z,35.25
2018-11-07T06:25:30.953Z,31.42
2018-11-07T06:26:02.093Z,33.75
2018-11-07T06:26:33.251Z,31.15
2018-11-07T06:27:04.363Z,30.02
2018-11-07T06:27:35.465Z,30.65
2018-11-07T06:28:06.630Z,31.90
2018-11-07T06:28:37.813Z,32.90
2018-11-07T06:29:08.942Z,34.18
2018-11-07T06:29:40.081Z,32.08
2018-11-07T06:30:11.255Z,30.27
2018-11-07T06:30:42.375Z,30.12
2018-11-07T06:31:13.490Z,31.85
2018-11-07T06:31:44.618Z,34.67
2018-11-07T06:32:15.755Z,33.25
2018-11-07T06:32:46.895Z,32.33
2018-11-07T06:33:18.023Z,32.98
2018-11-07T06:33:49.211Z,34.75
2018-11-07T06:34:20.299Z,36.33
2018-11-07T06:34:51.425Z,29.92
2018-11-07T06:35:22.579Z,34.88
2018-11-07T06:35:53.686Z,29.72
2018-11-07T06:36:24.806Z,29.82
2018-11-07T06:36:55.940Z,31.60
2018-11-07T06:37:27.047Z,29.65
2018-11-07T06:37:58.164Z,29.57
2018-11-07T06:38:29.290Z,34.03
2018-11-07T06:39:00.398Z,29.02
2018-11-07T06:39:31.503Z,28.95
2018-11-07T06:40:02.595Z,30.32
2018-11-07T06:40:33.746Z,30.25
2018-11-07T06:41:04.859Z,30.95
2018-11-07T06:41:36.030Z,34.78
2018-11-07T06:42:07.175Z,33.25